createdAt,value
2017-08-03T00:00:09.802Z,0
2017-08-03T00:01:11.200Z,0
2017-08-03T00:02:12.599Z,0
2017-08-03T00:03:13.994Z,0
2017-08-03T00:04:15.396Z,0
2017-08-03T00:05:16.799Z,0
2017-08-03T00:06:18.192Z,0
2017-08-03T00:07:19.587Z,0
2017-08-03T00:08:20.989Z,0
2017-08-03T00:09:22.388Z,0
2017-08-03T00:10:23.785Z,0
2017-08-03T00:11:25.186Z,0
2017-08-03T00:12:26.587Z,0
2017-08-03T00:13:27.985Z,0
2017-08-03T00:14:29.380Z,0
2017-08-03T00:15:30.780Z,0
2017-08-03T00:16:32.178Z,0
2017-08-03T00:17:33.577Z,0
2017-08-03T00:18:34.979Z,0
2017-08-03T00:19:36.383Z,0
2017-08-03T00:20:37.776Z,0
2017-08-03T00:21:39.178Z,0
2017-08-03T00:22:40.578Z,0
2017-08-03T00:23:41.975Z,0
2017-08-03T00:24:43.375Z,0
2017-08-03T00:25:44.773Z,0
2017-08-03T00:26:46.183Z,0
2017-08-03T00:27:47.569Z,0
2017-08-03T00:28:48.974Z,0
2017-08-03T00:29:50.370Z,0
2017-08-03T00:30:51.770Z,0
2017-08-03T00:31:53.168Z,0
2017-08-03T00:32:54.566Z,0
2017-08-03T00:33:55.976Z,0
2017-08-03T00:34:57.368Z,0
2017-08-03T00:35:58.790Z,0
2017-08-03T00:37:00.187Z,0
2017-08-03T00:38:01.593Z,0
2017-08-03T00:39:02.987Z,0
2017-08-03T00:40:04.400Z,0
2017-08-03T00:41:05.786Z,0
2017-08-03T00:42:07.189Z,0
2017-08-03T00:43:08.583Z,0
2017-08-03T00:44:09.981Z,0
2017-08-03T00:45:11.381Z,0
2017-08-03T00:46:12.781Z,0
2017-08-03T00:47:14.182Z,0
2017-08-03T00:48:15.581Z,0
2017-08-03T00:49:16.978Z,0
2017-08-03T00:50:18.376Z,0
2017-08-03T00:51:19.774Z,0
2017-08-03T00:52:21.178Z,0
2017-08-03T00:53:22.582Z,0
2017-08-03T00:54:23.982Z,0
2017-08-03T00:55:25.382Z,0
2017-08-03T00:56:26.780Z,0
2017-08-03T00:57:28.176Z,0
2017-08-03T00:58:29.574Z,0
2017-08-03T00:59:30.972Z,0
2017-08-03T01:00:32.369Z,0
2017-08-03T01:01:33.773Z,0
2017-08-03T01:02:35.173Z,0
2017-08-03T01:03:36.567Z,0
2017-08-03T01:04:37.965Z,0
2017-08-03T01:05:39.363Z,0
2017-08-03T01:06:40.780Z,0
2017-08-03T01:07:42.157Z,0
2017-08-03T01:08:43.556Z,0
2017-08-03T01:09:44.955Z,0
2017-08-03T01:10:46.350Z,0
2017-08-03T01:11:47.748Z,0
2017-08-03T01:12:49.143Z,0
2017-08-03T01:13:50.540Z,0
2017-08-03T01:14:51.938Z,0
2017-08-03T01:15:53.337Z,0
2017-08-03T01:16:54.736Z,0
2017-08-03T01:17:56.134Z,0
2017-08-03T01:18:57.528Z,0
2017-08-03T01:19:58.925Z,0
2017-08-03T01:21:00.325Z,0
2017-08-03T01:22:01.719Z,0
2017-08-03T01:23:03.120Z,0
2017-08-03T01:24:04.520Z,0
2017-08-03T01:25:05.915Z,0
2017-08-03T01:26:07.312Z,0
2017-08-03T01:27:08.711Z,0
2017-08-03T01:28:10.107Z,0
2017-08-03T01:29:11.516Z,0
2017-08-03T01:30:12.917Z,0
2017-08-03T01:31:14.317Z,0
2017-08-03T01:32:15.711Z,0
2017-08-03T01:33:17.108Z,0
2017-08-03T01:34:18.507Z,0
2017-08-03T01:35:19.902Z,0
2017-08-03T01:36:21.304Z,0
2017-08-03T01:37:22.700Z,0
2017-08-03T01:38:24.105Z,0
2017-08-03T01:39:25.502Z,0
2017-08-03T01:40:26.900Z,0
2017-08-03T01:41:28.298Z,0
2017-08-03T01:42:29.702Z,0
2017-08-03T01:43:31.102Z,0
2017-08-03T01:44:32.501Z,0
2017-08-03T01:45:33.901Z,0
2017-08-03T01:46:35.295Z,0
2017-08-03T01:47:36.696Z,0
2017-08-03T01:48:38.092Z,0
2017-08-03T01:49:39.487Z,0
2017-08-03T01:50:40.891Z,0
2017-08-03T01:51:42.286Z,0
2017-08-03T01:52:43.687Z,0
2017-08-03T01:53:45.082Z,0
2017-08-03T01:54:46.475Z,0
2017-08-03T01:55:47.876Z,0
2017-08-03T01:56:49.273Z,0
2017-08-03T01:57:50.668Z,0
2017-08-03T01:58:52.070Z,0
2017-08-03T01:59:53.468Z,0
2017-08-03T02:00:54.866Z,0
2017-08-03T02:01:56.263Z,0
2017-08-03T02:02:57.672Z,0
2017-08-03T02:03:59.054Z,0
2017-08-03T02:05:00.454Z,0
2017-08-03T02:06:01.852Z,0
2017-08-03T02:07:03.251Z,0
2017-08-03T02:08:04.645Z,0
2017-08-03T02:09:06.039Z,0
2017-08-03T02:10:07.437Z,0
2017-08-03T02:11:08.835Z,0
2017-08-03T02:12:10.363Z,0
2017-08-03T02:13:11.792Z,0
2017-08-03T02:14:13.200Z,0
2017-08-03T02:15:14.588Z,0
2017-08-03T02:16:16.005Z,0
2017-08-03T02:17:17.403Z,0
2017-08-03T02:18:18.801Z,0
2017-08-03T02:19:20.196Z,0
2017-08-03T02:20:21.595Z,0
2017-08-03T02:21:22.996Z,0
2017-08-03T02:22:24.394Z,0
2017-08-03T02:23:25.790Z,0
2017-08-03T02:24:27.190Z,0
2017-08-03T02:25:28.584Z,0
2017-08-03T02:26:29.983Z,0
2017-08-03T02:27:31.380Z,0
2017-08-03T02:28:32.780Z,0
2017-08-03T02:29:34.175Z,0
2017-08-03T02:30:35.575Z,0
2017-08-03T02:31:36.970Z,0
2017-08-03T02:32:38.368Z,0
2017-08-03T02:33:39.768Z,0
2017-08-03T02:34:41.164Z,0
2017-08-03T02:35:42.568Z,0
2017-08-03T02:36:43.963Z,0
2017-08-03T02:37:45.356Z,0
2017-08-03T02:38:46.752Z,0
2017-08-03T02:39:48.152Z,0
2017-08-03T02:40:49.548Z,0
2017-08-03T02:41:50.945Z,0
2017-08-03T02:42:52.344Z,0
2017-08-03T02:43:53.737Z,0
2017-08-03T02:44:55.140Z,0
2017-08-03T02:45:56.538Z,0
2017-08-03T02:46:57.935Z,0
2017-08-03T02:47:59.334Z,0
2017-08-03T02:49:00.736Z,0
2017-08-03T02:50:02.138Z,0
2017-08-03T02:51:03.530Z,0
2017-08-03T02:52:04.931Z,0
2017-08-03T02:53:06.324Z,0
2017-08-03T02:54:07.723Z,0
2017-08-03T02:55:09.120Z,0
2017-08-03T02:56:10.521Z,0
2017-08-03T02:57:11.919Z,0
2017-08-03T02:58:13.313Z,0
2017-08-03T02:59:14.712Z,0
2017-08-03T03:00:16.110Z,0
2017-08-03T03:01:17.506Z,0
2017-08-03T03:02:18.908Z,0
2017-08-03T03:03:20.304Z,0
2017-08-03T03:04:21.704Z,0
2017-08-03T03:05:23.105Z,0
2017-08-03T03:06:24.508Z,0
2017-08-03T03:07:25.899Z,0
2017-08-03T03:08:27.293Z,0
2017-08-03T03:09:28.691Z,0
2017-08-03T03:10:30.089Z,0
2017-08-03T03:11:31.487Z,0
2017-08-03T03:12:32.883Z,0
2017-08-03T03:13:34.278Z,0
2017-08-03T03:14:35.676Z,0
2017-08-03T03:15:37.077Z,0
2017-08-03T03:16:38.473Z,0
2017-08-03T03:17:39.873Z,0
2017-08-03T03:18:41.272Z,0
2017-08-03T03:19:42.670Z,0
2017-08-03T03:20:44.065Z,0
2017-08-03T03:21:45.463Z,0
2017-08-03T03:22:46.859Z,0
2017-08-03T03:23:48.256Z,0
2017-08-03T03:24:49.655Z,0
2017-08-03T03:25:51.052Z,0
2017-08-03T03:26:52.450Z,0
2017-08-03T03:27:53.847Z,0
2017-08-03T03:28:55.245Z,0
2017-08-03T03:29:56.643Z,0
2017-08-03T03:30:58.040Z,0
2017-08-03T03:31:59.439Z,0
2017-08-03T03:33:00.848Z,0
2017-08-03T03:34:02.246Z,0
2017-08-03T03:35:03.648Z,0
2017-08-03T03:36:05.043Z,0
2017-08-03T03:37:06.439Z,0
2017-08-03T03:38:07.843Z,0
2017-08-03T03:39:09.245Z,0
2017-08-03T03:40:10.642Z,0
2017-08-03T03:41:12.039Z,0
2017-08-03T03:42:13.438Z,0
2017-08-03T03:43:14.836Z,0
2017-08-03T03:44:16.233Z,4
2017-08-03T03:45:17.632Z,4
2017-08-03T03:46:19.034Z,4
2017-08-03T03:47:20.434Z,4
2017-08-03T03:48:21.838Z,4
2017-08-03T03:49:23.247Z,0
2017-08-03T03:50:24.693Z,0
2017-08-03T03:51:26.087Z,0
2017-08-03T03:52:27.483Z,0
2017-08-03T03:53:28.881Z,0
2017-08-03T03:54:30.281Z,4
2017-08-03T03:55:31.689Z,4
2017-08-03T03:56:33.079Z,4
2017-08-03T03:57:34.478Z,4
2017-08-03T03:58:35.874Z,8
2017-08-03T03:59:37.279Z,4
2017-08-03T04:00:38.672Z,4
2017-08-03T04:01:40.071Z,8
2017-08-03T04:02:41.466Z,8
2017-08-03T04:03:42.863Z,8
2017-08-03T04:04:44.261Z,8
2017-08-03T04:05:45.659Z,8
2017-08-03T04:06:47.056Z,8
2017-08-03T04:07:48.459Z,8
2017-08-03T04:08:49.859Z,8
2017-08-03T04:09:51.261Z,12
2017-08-03T04:10:52.660Z,12
2017-08-03T04:11:54.058Z,12
2017-08-03T04:12:55.455Z,12
2017-08-03T04:13:56.858Z,12
2017-08-03T04:14:58.261Z,16
2017-08-03T04:15:59.662Z,16
2017-08-03T04:17:01.057Z,20
2017-08-03T04:18:02.455Z,20
2017-08-03T04:19:03.858Z,20
2017-08-03T04:20:05.254Z,20
2017-08-03T04:21:06.656Z,20
2017-08-03T04:22:08.058Z,20
2017-08-03T04:23:09.460Z,24
2017-08-03T04:24:10.857Z,28
2017-08-03T04:25:12.259Z,32
2017-08-03T04:26:13.656Z,32
2017-08-03T04:27:15.055Z,36
2017-08-03T04:28:16.453Z,40
2017-08-03T04:29:17.856Z,40
2017-08-03T04:30:19.261Z,36
2017-08-03T04:31:20.654Z,36
2017-08-03T04:32:22.051Z,32
2017-08-03T04:33:23.450Z,36
2017-08-03T04:34:24.850Z,36
2017-08-03T04:35:26.249Z,44
2017-08-03T04:36:27.673Z,56
2017-08-03T04:37:29.073Z,72
2017-08-03T04:38:30.468Z,92
2017-08-03T04:39:31.869Z,112
2017-08-03T04:40:33.273Z,116
2017-08-03T04:41:34.671Z,116
2017-08-03T04:42:36.069Z,108
2017-08-03T04:43:37.679Z,100
2017-08-03T04:44:39.079Z,92
2017-08-03T04:45:40.479Z,88
2017-08-03T04:46:41.886Z,96
2017-08-03T04:47:43.293Z,96
2017-08-03T04:48:44.691Z,104
2017-08-03T04:49:46.092Z,100
2017-08-03T04:50:47.495Z,100
2017-08-03T04:51:48.893Z,96
2017-08-03T04:52:50.292Z,100
2017-08-03T04:53:51.693Z,100
2017-08-03T04:54:53.087Z,96
2017-08-03T04:55:54.488Z,92
2017-08-03T04:56:55.888Z,88
2017-08-03T04:57:57.288Z,84
2017-08-03T04:58:58.687Z,88
2017-08-03T05:00:00.085Z,96
2017-08-03T05:01:01.482Z,104
2017-08-03T05:02:02.883Z,108
2017-08-03T05:03:04.280Z,112
2017-08-03T05:04:05.681Z,112
2017-08-03T05:05:07.086Z,116
2017-08-03T05:06:08.486Z,116
2017-08-03T05:07:09.884Z,128
2017-08-03T05:08:11.285Z,136
2017-08-03T05:09:12.682Z,148
2017-08-03T05:10:14.086Z,152
2017-08-03T05:11:15.486Z,148
2017-08-03T05:12:16.897Z,144
2017-08-03T05:13:18.305Z,140
2017-08-03T05:14:19.697Z,136
2017-08-03T05:15:21.096Z,136
2017-08-03T05:16:22.501Z,132
2017-08-03T05:17:23.900Z,136
2017-08-03T05:18:25.301Z,144
2017-08-03T05:19:26.703Z,152
2017-08-03T05:20:28.103Z,160
2017-08-03T05:21:29.508Z,168
2017-08-03T05:22:30.901Z,176
2017-08-03T05:23:32.306Z,180
2017-08-03T05:24:33.707Z,180
2017-08-03T05:25:35.110Z,180
2017-08-03T05:26:36.524Z,172
2017-08-03T05:27:37.952Z,168
2017-08-03T05:28:39.350Z,168
2017-08-03T05:29:40.750Z,168
2017-08-03T05:30:42.157Z,176
2017-08-03T05:31:43.560Z,176
2017-08-03T05:32:44.962Z,192
2017-08-03T05:33:46.367Z,208
2017-08-03T05:34:47.770Z,232
2017-08-03T05:35:49.169Z,252
2017-08-03T05:36:50.572Z,280
2017-08-03T05:37:51.971Z,324
2017-08-03T05:38:53.375Z,368
2017-08-03T05:39:54.774Z,412
2017-08-03T05:40:56.173Z,444
2017-08-03T05:41:57.581Z,464
2017-08-03T05:42:58.980Z,464
2017-08-03T05:44:00.383Z,420
2017-08-03T05:45:01.784Z,372
2017-08-03T05:46:03.188Z,344
2017-08-03T05:47:04.588Z,320
2017-08-03T05:48:05.988Z,308
2017-08-03T05:49:07.395Z,300
2017-08-03T05:50:08.797Z,300
2017-08-03T05:51:10.195Z,304
2017-08-03T05:52:11.601Z,312
2017-08-03T05:53:13.000Z,340
2017-08-03T05:54:14.403Z,400
2017-08-03T05:55:15.804Z,484
2017-08-03T05:56:18.103Z,532
2017-08-03T05:57:19.502Z,528
2017-08-03T05:58:20.901Z,480
2017-08-03T05:59:22.302Z,424
2017-08-03T06:00:23.715Z,360
2017-08-03T06:01:25.117Z,316
2017-08-03T06:02:26.517Z,304
2017-08-03T06:03:27.922Z,316
2017-08-03T06:04:29.328Z,340
2017-08-03T06:05:30.737Z,384
2017-08-03T06:06:32.145Z,424
2017-08-03T06:07:33.538Z,468
2017-08-03T06:08:34.941Z,524
2017-08-03T06:09:36.347Z,576
2017-08-03T06:10:37.750Z,636
2017-08-03T06:11:39.147Z,752
2017-08-03T06:12:40.551Z,952
2017-08-03T06:13:41.960Z,1144
2017-08-03T06:14:43.366Z,1268
2017-08-03T06:15:44.772Z,1324
2017-08-03T06:16:46.173Z,1332
2017-08-03T06:17:47.583Z,1348
2017-08-03T06:18:48.984Z,1420
2017-08-03T06:19:50.384Z,1500
2017-08-03T06:20:51.784Z,1496
2017-08-03T06:21:53.189Z,1408
2017-08-03T06:22:54.594Z,1332
2017-08-03T06:23:55.995Z,1260
2017-08-03T06:24:57.399Z,1144
2017-08-03T06:25:58.804Z,968
2017-08-03T06:27:00.201Z,864
2017-08-03T06:28:01.612Z,860
2017-08-03T06:29:03.038Z,900
2017-08-03T06:30:04.435Z,896
2017-08-03T06:31:05.840Z,828
2017-08-03T06:32:07.245Z,780
2017-08-03T06:33:08.643Z,764
2017-08-03T06:34:10.037Z,780
2017-08-03T06:35:11.441Z,752
2017-08-03T06:36:12.843Z,696
2017-08-03T06:37:14.243Z,684
2017-08-03T06:38:15.654Z,752
2017-08-03T06:39:17.051Z,848
2017-08-03T06:40:18.451Z,968
2017-08-03T06:41:19.852Z,1080
2017-08-03T06:42:21.255Z,1164
2017-08-03T06:43:22.658Z,1248
2017-08-03T06:44:24.060Z,1284
2017-08-03T06:45:25.468Z,1244
2017-08-03T06:46:26.877Z,1100
2017-08-03T06:47:28.274Z,1024
2017-08-03T06:48:29.671Z,936
2017-08-03T06:49:31.071Z,860
2017-08-03T06:50:32.474Z,768
2017-08-03T06:51:33.875Z,656
2017-08-03T06:52:35.279Z,632
2017-08-03T06:53:36.681Z,692
2017-08-03T06:54:38.084Z,824
2017-08-03T06:55:39.487Z,876
2017-08-03T06:56:40.894Z,744
2017-08-03T06:57:42.287Z,724
2017-08-03T06:58:43.687Z,808
2017-08-03T06:59:45.089Z,940
2017-08-03T07:00:46.496Z,1112
2017-08-03T07:01:47.899Z,1220
2017-08-03T07:02:49.348Z,1200
2017-08-03T07:03:50.755Z,1300
2017-08-03T07:04:52.159Z,1608
2017-08-03T07:05:53.561Z,1876
2017-08-03T07:06:54.963Z,1868
2017-08-03T07:07:56.369Z,1720
2017-08-03T07:08:57.772Z,1664
2017-08-03T07:09:59.173Z,1660
2017-08-03T07:11:00.572Z,1736
2017-08-03T07:12:01.983Z,1796
2017-08-03T07:13:03.381Z,1816
2017-08-03T07:14:04.782Z,1796
2017-08-03T07:15:06.199Z,1760
2017-08-03T07:16:07.591Z,1664
2017-08-03T07:17:08.993Z,1596
2017-08-03T07:18:10.399Z,1624
2017-08-03T07:19:11.806Z,1720
2017-08-03T07:20:13.207Z,1804
2017-08-03T07:21:14.617Z,1876
2017-08-03T07:22:16.023Z,1880
2017-08-03T07:23:17.424Z,1760
2017-08-03T07:24:18.828Z,1804
2017-08-03T07:25:20.232Z,1876
2017-08-03T07:26:21.632Z,1796
2017-08-03T07:27:23.037Z,1644
2017-08-03T07:28:24.440Z,1684
2017-08-03T07:29:25.866Z,1784
2017-08-03T07:30:27.271Z,1536
2017-08-03T07:31:28.674Z,1204
2017-08-03T07:32:30.075Z,984
2017-08-03T07:33:31.479Z,932
2017-08-03T07:34:32.874Z,876
2017-08-03T07:35:34.281Z,848
2017-08-03T07:36:35.684Z,860
2017-08-03T07:37:37.083Z,924
2017-08-03T07:38:38.486Z,936
2017-08-03T07:39:39.888Z,1024
2017-08-03T07:40:41.290Z,1064
2017-08-03T07:41:42.698Z,1152
2017-08-03T07:42:44.101Z,1404
2017-08-03T07:43:45.507Z,1760
2017-08-03T07:44:46.911Z,2064
2017-08-03T07:45:48.327Z,2160
2017-08-03T07:46:49.726Z,2228
2017-08-03T07:47:51.129Z,2068
2017-08-03T07:48:52.533Z,1980
2017-08-03T07:49:53.938Z,2064
2017-08-03T07:50:55.342Z,1936
2017-08-03T07:51:56.745Z,1856
2017-08-03T07:52:58.146Z,2052
2017-08-03T07:53:59.551Z,2268
2017-08-03T07:55:00.952Z,2272
2017-08-03T07:56:02.365Z,2356
2017-08-03T07:57:03.767Z,2364
2017-08-03T07:58:05.173Z,2332
2017-08-03T07:59:06.585Z,2364
2017-08-03T08:00:07.982Z,2496
2017-08-03T08:01:09.383Z,2552
2017-08-03T08:02:10.787Z,2732
2017-08-03T08:03:12.192Z,2728
2017-08-03T08:04:13.598Z,2804
2017-08-03T08:05:15.005Z,2932
2017-08-03T08:06:16.407Z,3112
2017-08-03T08:07:17.814Z,3092
2017-08-03T08:08:19.221Z,2976
2017-08-03T08:09:20.620Z,2640
2017-08-03T08:10:22.028Z,2308
2017-08-03T08:11:23.432Z,2084
2017-08-03T08:12:24.835Z,1984
2017-08-03T08:13:26.240Z,2000
2017-08-03T08:14:27.640Z,2124
2017-08-03T08:15:29.043Z,2148
2017-08-03T08:16:30.446Z,2124
2017-08-03T08:17:31.853Z,2100
2017-08-03T08:18:33.261Z,2180
2017-08-03T08:19:34.677Z,2280
2017-08-03T08:20:36.074Z,2276
2017-08-03T08:21:37.479Z,2240
2017-08-03T08:22:38.900Z,2336
2017-08-03T08:23:40.289Z,2580
2017-08-03T08:24:41.699Z,3068
2017-08-03T08:25:43.111Z,3280
2017-08-03T08:26:44.518Z,3364
2017-08-03T08:27:45.924Z,3468
2017-08-03T08:28:47.333Z,3516
2017-08-03T08:29:48.738Z,3608
2017-08-03T08:30:50.140Z,3584
2017-08-03T08:31:51.546Z,3244
2017-08-03T08:32:52.955Z,3204
2017-08-03T08:33:54.358Z,3432
2017-08-03T08:34:55.768Z,3496
2017-08-03T08:35:57.172Z,3448
2017-08-03T08:36:58.579Z,3540
2017-08-03T08:38:00.025Z,3732
2017-08-03T08:39:01.474Z,4104
2017-08-03T08:40:02.889Z,4284
2017-08-03T08:41:04.298Z,4044
2017-08-03T08:42:05.701Z,3636
2017-08-03T08:43:07.102Z,3304
2017-08-03T08:44:08.510Z,2976
2017-08-03T08:45:09.915Z,2516
2017-08-03T08:46:11.318Z,2216
2017-08-03T08:47:12.743Z,2092
2017-08-03T08:48:14.149Z,2148
2017-08-03T08:49:15.554Z,2232
2017-08-03T08:50:16.962Z,2172
2017-08-03T08:51:18.364Z,1988
2017-08-03T08:52:19.768Z,1796
2017-08-03T08:53:21.170Z,1688
2017-08-03T08:54:22.578Z,1628
2017-08-03T08:55:23.983Z,1656
2017-08-03T08:56:25.385Z,1840
2017-08-03T08:57:26.789Z,1988
2017-08-03T08:58:28.192Z,2064
2017-08-03T08:59:29.594Z,2160
2017-08-03T09:00:31.002Z,2316
2017-08-03T09:01:32.409Z,2540
2017-08-03T09:02:33.814Z,2816
2017-08-03T09:03:35.220Z,3016
2017-08-03T09:04:36.625Z,3292
2017-08-03T09:05:38.026Z,3264
2017-08-03T09:06:39.431Z,3204
2017-08-03T09:07:40.835Z,3156
2017-08-03T09:08:42.249Z,3048
2017-08-03T09:09:43.648Z,3100
2017-08-03T09:10:45.047Z,3236
2017-08-03T09:11:46.453Z,3812
2017-08-03T09:12:47.858Z,4160
2017-08-03T09:13:49.265Z,3828
2017-08-03T09:14:50.673Z,4084
2017-08-03T09:15:52.081Z,4532
2017-08-03T09:16:53.485Z,4396
2017-08-03T09:17:54.888Z,4752
2017-08-03T09:18:56.295Z,4832
2017-08-03T09:19:57.701Z,4976
2017-08-03T09:20:59.107Z,4268
2017-08-03T09:22:00.513Z,3820
2017-08-03T09:23:01.924Z,4124
2017-08-03T09:24:03.333Z,4544
2017-08-03T09:25:04.735Z,5288
2017-08-03T09:26:06.140Z,5676
2017-08-03T09:27:07.547Z,6644
2017-08-03T09:28:08.950Z,7540
2017-08-03T09:29:10.360Z,7156
2017-08-03T09:30:11.764Z,7788
2017-08-03T09:31:13.169Z,7028
2017-08-03T09:32:14.575Z,6176
2017-08-03T09:33:15.981Z,7152
2017-08-03T09:34:17.386Z,7428
2017-08-03T09:35:18.797Z,7432
2017-08-03T09:36:20.193Z,7488
2017-08-03T09:37:21.599Z,11048
2017-08-03T09:38:23.016Z,7732
2017-08-03T09:39:24.410Z,9424
2017-08-03T09:40:25.812Z,7692
2017-08-03T09:41:27.223Z,8948
2017-08-03T09:42:28.629Z,9652
2017-08-03T09:43:30.040Z,10172
2017-08-03T09:44:31.446Z,8700
2017-08-03T09:45:32.850Z,7136
2017-08-03T09:46:34.254Z,7560
2017-08-03T09:47:35.663Z,7276
2017-08-03T09:48:37.066Z,6280
2017-08-03T09:49:38.466Z,7072
2017-08-03T09:50:39.873Z,7532
2017-08-03T09:51:41.281Z,10152
2017-08-03T09:52:42.698Z,7940
2017-08-03T09:53:44.111Z,10744
2017-08-03T09:54:45.503Z,9212
2017-08-03T09:55:46.924Z,7992
2017-08-03T09:56:48.328Z,8144
2017-08-03T09:57:49.737Z,10220
2017-08-03T09:58:51.149Z,10220
2017-08-03T09:59:52.554Z,9148
2017-08-03T10:00:53.957Z,7604
2017-08-03T10:01:55.364Z,7116
2017-08-03T10:02:56.768Z,8212
2017-08-03T10:03:58.173Z,9364
2017-08-03T10:04:59.581Z,10480
2017-08-03T10:06:00.986Z,6340
2017-08-03T10:07:02.397Z,4944
2017-08-03T10:08:03.798Z,4916
2017-08-03T10:09:05.206Z,6404
2017-08-03T10:10:06.609Z,5032
2017-08-03T10:11:08.016Z,4404
2017-08-03T10:12:09.424Z,3560
2017-08-03T10:13:10.835Z,2932
2017-08-03T10:14:12.239Z,3288
2017-08-03T10:15:13.643Z,2708
2017-08-03T10:16:15.046Z,2104
2017-08-03T10:17:16.449Z,2320
2017-08-03T10:18:17.857Z,1744
2017-08-03T10:19:19.257Z,1328
2017-08-03T10:20:20.661Z,1348
2017-08-03T10:21:22.068Z,1520
2017-08-03T10:22:23.474Z,1864
2017-08-03T10:23:24.876Z,1804
2017-08-03T10:24:26.276Z,1616
2017-08-03T10:25:27.681Z,2088
2017-08-03T10:26:29.087Z,2836
2017-08-03T10:27:30.493Z,2552
2017-08-03T10:28:31.906Z,2564
2017-08-03T10:29:33.311Z,3168
2017-08-03T10:30:34.713Z,3436
2017-08-03T10:31:36.120Z,2212
2017-08-03T10:32:37.523Z,1640
2017-08-03T10:33:38.928Z,1836
2017-08-03T10:34:40.335Z,2188
2017-08-03T10:35:41.742Z,2316
2017-08-03T10:36:43.147Z,2592
2017-08-03T10:37:44.550Z,2376
2017-08-03T10:38:45.977Z,2336
2017-08-03T10:39:47.360Z,2740
2017-08-03T10:40:48.763Z,2868
2017-08-03T10:41:50.167Z,2920
2017-08-03T10:42:51.575Z,2480
2017-08-03T10:43:52.978Z,2512
2017-08-03T10:44:54.385Z,2512
2017-08-03T10:45:55.787Z,2532
2017-08-03T10:46:57.190Z,2588
2017-08-03T10:47:58.594Z,2884
2017-08-03T10:49:00.003Z,3116
2017-08-03T10:50:01.405Z,3924
2017-08-03T10:51:02.812Z,5100
2017-08-03T10:52:04.214Z,6640
2017-08-03T10:53:05.618Z,7100
2017-08-03T10:54:07.022Z,6992
2017-08-03T10:55:08.430Z,6664
2017-08-03T10:56:09.841Z,6792
2017-08-03T10:57:11.250Z,5056
2017-08-03T10:58:12.654Z,5144
2017-08-03T10:59:14.063Z,4968
2017-08-03T11:00:15.468Z,5064
2017-08-03T11:01:16.863Z,4816
2017-08-03T11:02:18.281Z,5172
2017-08-03T11:03:19.691Z,5136
2017-08-03T11:04:21.097Z,4752
2017-08-03T11:05:22.501Z,4940
2017-08-03T11:06:23.905Z,5572
2017-08-03T11:07:25.309Z,6072
2017-08-03T11:08:26.711Z,8416
2017-08-03T11:09:28.116Z,15312
2017-08-03T11:10:29.524Z,5864
2017-08-03T11:11:30.935Z,4720
2017-08-03T11:12:32.340Z,6444
2017-08-03T11:13:33.741Z,7428
2017-08-03T11:14:35.147Z,7380
2017-08-03T11:15:36.551Z,13284
2017-08-03T11:16:37.960Z,4400
2017-08-03T11:17:39.369Z,4400
2017-08-03T11:18:40.777Z,5420
2017-08-03T11:19:42.176Z,8040
2017-08-03T11:20:43.580Z,9260
2017-08-03T11:21:44.987Z,9972
2017-08-03T11:22:46.387Z,14204
2017-08-03T11:23:47.792Z,7332
2017-08-03T11:24:49.200Z,5364
2017-08-03T11:25:50.610Z,4532
2017-08-03T11:26:52.012Z,4436
2017-08-03T11:27:53.413Z,3240
2017-08-03T11:28:54.818Z,3464
2017-08-03T11:29:56.222Z,2816
2017-08-03T11:30:57.629Z,2656
2017-08-03T11:31:59.034Z,2200
2017-08-03T11:33:00.442Z,2560
2017-08-03T11:34:01.849Z,2740
2017-08-03T11:35:03.245Z,2876
2017-08-03T11:36:04.649Z,3360
2017-08-03T11:37:06.056Z,3224
2017-08-03T11:38:07.463Z,3428
2017-08-03T11:39:08.865Z,2656
2017-08-03T11:40:10.274Z,2664
2017-08-03T11:41:11.674Z,2464
2017-08-03T11:42:13.082Z,4968
2017-08-03T11:43:14.485Z,6996
2017-08-03T11:44:15.892Z,4320
2017-08-03T11:45:17.297Z,2644
2017-08-03T11:46:18.716Z,2372
2017-08-03T11:47:20.142Z,2220
2017-08-03T11:48:21.523Z,4152
2017-08-03T11:49:22.928Z,4848
2017-08-03T11:50:24.397Z,5820
2017-08-03T11:51:25.785Z,15516
2017-08-03T11:52:27.194Z,8456
2017-08-03T11:53:28.600Z,5520
2017-08-03T11:54:30.004Z,4692
2017-08-03T11:55:31.405Z,5080
2017-08-03T11:56:32.810Z,5996
2017-08-03T11:57:34.213Z,4696
2017-08-03T11:58:35.616Z,2756
2017-08-03T11:59:37.022Z,3512
2017-08-03T12:00:38.430Z,3652
2017-08-03T12:01:39.836Z,3344
2017-08-03T12:02:41.236Z,3848
2017-08-03T12:03:42.640Z,4280
2017-08-03T12:04:44.055Z,3384
2017-08-03T12:05:45.452Z,3772
2017-08-03T12:06:46.864Z,3824
2017-08-03T12:07:48.273Z,2740
2017-08-03T12:08:49.677Z,1732
2017-08-03T12:09:51.080Z,1928
2017-08-03T12:10:52.483Z,3124
2017-08-03T12:11:53.887Z,4136
2017-08-03T12:12:55.289Z,3804
2017-08-03T12:13:56.696Z,3580
2017-08-03T12:14:58.100Z,2628
2017-08-03T12:15:59.508Z,2764
2017-08-03T12:17:00.908Z,3760
2017-08-03T12:18:02.311Z,3756
2017-08-03T12:19:03.715Z,3196
2017-08-03T12:20:05.119Z,6252
2017-08-03T12:21:06.522Z,21632
2017-08-03T12:22:07.932Z,12392
2017-08-03T12:23:09.340Z,30176
2017-08-03T12:24:10.748Z,29312
2017-08-03T12:25:12.155Z,16704
2017-08-03T12:26:13.563Z,30208
2017-08-03T12:27:14.968Z,28064
2017-08-03T12:28:16.379Z,30304
2017-08-03T12:29:17.813Z,30912
2017-08-03T12:30:19.217Z,30848
2017-08-03T12:31:20.625Z,32416
2017-08-03T12:32:22.033Z,37312
2017-08-03T12:33:23.441Z,39616
2017-08-03T12:34:24.844Z,35168
2017-08-03T12:35:26.261Z,30816
2017-08-03T12:36:27.686Z,30752
2017-08-03T12:37:29.097Z,31296
2017-08-03T12:38:30.521Z,31392
2017-08-03T12:39:31.929Z,31520
2017-08-03T12:40:33.372Z,31424
2017-08-03T12:41:34.768Z,32288
2017-08-03T12:42:36.178Z,32352
2017-08-03T12:43:37.590Z,32032
2017-08-03T12:44:39.001Z,32320
2017-08-03T12:45:40.406Z,32288
2017-08-03T12:46:41.815Z,32608
2017-08-03T12:47:43.224Z,32672
2017-08-03T12:48:44.632Z,32416
2017-08-03T12:49:46.048Z,32704
2017-08-03T12:50:47.462Z,32704
2017-08-03T12:51:48.875Z,33024
2017-08-03T12:52:50.285Z,32960
2017-08-03T12:53:51.693Z,32960
2017-08-03T12:54:53.106Z,32864
2017-08-03T12:55:54.514Z,33184
2017-08-03T12:56:55.928Z,32896
2017-08-03T12:57:57.338Z,33152
2017-08-03T12:58:58.752Z,32256
2017-08-03T13:00:00.161Z,33280
2017-08-03T13:01:01.570Z,33184
2017-08-03T13:02:02.981Z,33184
2017-08-03T13:03:04.389Z,33120
2017-08-03T13:04:05.801Z,32608
2017-08-03T13:05:07.221Z,33184
2017-08-03T13:06:08.635Z,34016
2017-08-03T13:07:10.044Z,33440
2017-08-03T13:08:11.455Z,33216
2017-08-03T13:09:12.865Z,33152
2017-08-03T13:10:14.276Z,33088
2017-08-03T13:11:15.687Z,33760
2017-08-03T13:12:17.097Z,33920
2017-08-03T13:13:18.508Z,34080
2017-08-03T13:14:19.924Z,34368
2017-08-03T13:15:21.333Z,34048
2017-08-03T13:16:22.746Z,34496
2017-08-03T13:17:24.161Z,34624
2017-08-03T13:18:25.570Z,34624
2017-08-03T13:19:26.983Z,34336
2017-08-03T13:20:28.395Z,34144
2017-08-03T13:21:29.805Z,34080
2017-08-03T13:22:31.215Z,34464
2017-08-03T13:23:32.627Z,34272
2017-08-03T13:24:34.041Z,34496
2017-08-03T13:25:35.452Z,34560
2017-08-03T13:26:36.890Z,33344
2017-08-03T13:27:38.278Z,32992
2017-08-03T13:28:39.688Z,33760
2017-08-03T13:29:41.138Z,33376
2017-08-03T13:30:42.552Z,33152
2017-08-03T13:31:43.962Z,33184
2017-08-03T13:32:45.375Z,33536
2017-08-03T13:33:46.786Z,33248
2017-08-03T13:34:48.202Z,33344
2017-08-03T13:35:49.611Z,33504
2017-08-03T13:36:51.025Z,33824
2017-08-03T13:37:52.447Z,33984
2017-08-03T13:38:53.865Z,33280
2017-08-03T13:39:55.271Z,33536
2017-08-03T13:40:56.684Z,33376
2017-08-03T13:41:58.104Z,33088
2017-08-03T13:42:59.516Z,33984
2017-08-03T13:44:00.921Z,5716
2017-08-03T13:45:02.341Z,11824
2017-08-03T13:46:03.750Z,5528
2017-08-03T13:47:05.161Z,5476
2017-08-03T13:48:06.572Z,5784
2017-08-03T13:49:07.989Z,35936
2017-08-03T13:50:09.393Z,5424
2017-08-03T13:51:10.802Z,4228
2017-08-03T13:52:12.221Z,4824
2017-08-03T13:53:13.627Z,32512
2017-08-03T13:54:15.040Z,34336
2017-08-03T13:55:16.457Z,25920
2017-08-03T13:56:17.873Z,4992
2017-08-03T13:57:19.278Z,7956
2017-08-03T13:58:20.684Z,4892
2017-08-03T13:59:22.090Z,5220
2017-08-03T14:00:23.499Z,4208
2017-08-03T14:01:24.910Z,3320
2017-08-03T14:02:26.318Z,2912
2017-08-03T14:03:27.725Z,2768
2017-08-03T14:04:29.131Z,3296
2017-08-03T14:05:30.560Z,2880